Time;durP1;ratioP1;P1;durP2;ratioP2;P2;SDS_P1;SDS_P2;PMS_P1;PMS_P2;Temp;Humidity;BMP_temperature;BMP_pressure;BME280_temperature;BME280_humidity;BME280_pressure;Samples;Min_cycle;Max_cycle;Signal;HPM_P1;HPM_P2
2023/08/30 00:00:48;;;;;;;0.00;0.00;;;;;;;17.30;60.20;100907.84;5093083;28;20492;-81
2023/08/30 00:03:14;;;;;;;0.10;0.10;;;;;;;17.33;60.24;100907.69;5093095;28;20100;-80
2023/08/30 00:05:42;;;;;;;0.30;0.30;;;;;;;17.32;60.41;100905.97;5089214;28;20035;-80
2023/08/30 00:08:08;;;;;;;0.10;0.10;;;;;;;17.34;60.25;100906.75;5093385;28;20166;-80
2023/08/30 00:10:35;;;;;;;0.10;0.10;;;;;;;17.34;60.32;100901.41;5095964;28;20055;-79
2023/08/30 00:13:01;;;;;;;0.10;0.10;;;;;;;17.35;60.15;100905.81;5091371;28;21543;-80
2023/08/30 00:15:27;;;;;;;0.10;0.10;;;;;;;17.36;59.91;100895.97;5090089;28;20099;-80
2023/08/30 00:17:53;;;;;;;0.10;0.10;;;;;;;17.38;60.17;100894.94;5091100;28;20032;-81
2023/08/30 00:20:20;;;;;;;0.05;0.05;;;;;;;17.40;60.30;100892.22;5089159;28;20032;-81
2023/08/30 00:22:48;;;;;;;0.10;0.10;;;;;;;17.38;59.98;100888.72;5089349;28;20036;-81
2023/08/30 00:25:15;;;;;;;0.10;0.10;;;;;;;17.42;60.09;100891.19;5092539;28;20021;-80
2023/08/30 00:27:42;;;;;;;0.50;0.50;;;;;;;17.45;60.23;100880.31;5097398;28;20366;-81
2023/08/30 00:30:09;;;;;;;0.10;0.10;;;;;;;17.46;60.40;100882.06;5089206;28;20630;-82
2023/08/30 00:32:35;;;;;;;0.00;0.00;;;;;;;17.46;60.32;100882.06;5091873;28;20403;-81
2023/08/30 00:35:02;;;;;;;0.10;0.10;;;;;;;17.49;60.18;100882.88;5091872;28;20420;-80
2023/08/30 00:37:28;;;;;;;0.10;0.10;;;;;;;17.50;60.20;100876.56;5094882;28;20028;-81
2023/08/30 00:39:54;;;;;;;0.10;0.10;;;;;;;17.51;59.93;100876.50;5095820;28;20028;-81
2023/08/30 00:42:20;;;;;;;1.65;1.55;;;;;;;17.53;60.15;100871.06;5093975;28;20034;-81
2023/08/30 00:44:46;;;;;;;0.05;0.05;;;;;;;17.56;60.19;100865.56;5098695;28;20028;-81
2023/08/30 00:47:12;;;;;;;0.28;0.28;;;;;;;17.60;60.19;100877.84;5092679;28;20433;-77
2023/08/30 00:49:40;;;;;;;0.20;0.20;;;;;;;17.60;60.51;100875.16;5092111;28;20361;-81
2023/08/30 00:52:09;;;;;;;0.10;0.10;;;;;;;17.63;60.45;100872.31;5092134;28;20387;-80
2023/08/30 00:54:36;;;;;;;0.10;0.10;;;;;;;17.63;60.36;100861.59;5091209;28;20048;-78
2023/08/30 00:57:02;;;;;;;1.45;0.68;;;;;;;17.61;60.47;100872.41;5093998;28;20056;-80
2023/08/30 00:59:32;;;;;;;0.10;0.10;;;;;;;17.62;60.16;100868.78;5094692;28;20513;-80
2023/08/30 01:01:58;;;;;;;0.00;0.00;;;;;;;17.57;60.34;100859.22;5093549;28;20036;-80
2023/08/30 01:04:26;;;;;;;0.20;0.20;;;;;;;17.56;59.97;100860.19;5096295;28;20048;-80
2023/08/30 01:06:53;;;;;;;0.00;0.00;;;;;;;17.51;60.17;100852.38;5090336;28;20020;-81
2023/08/30 01:09:19;;;;;;;0.10;0.10;;;;;;;17.48;60.40;100865.06;5089847;28;20036;-81
2023/08/30 01:12:00;;;;;;;0.10;0.10;;;;;;;17.43;60.49;100855.44;5088877;28;20551;-79
2023/08/30 01:14:38;;;;;;;0.10;0.10;;;;;;;17.39;60.47;100850.31;5090552;28;20035;-81
2023/08/30 01:17:07;;;;;;;0.10;0.10;;;;;;;17.32;60.47;100844.38;5092885;28;20055;-77
2023/08/30 01:22:41;;;;;;;0.03;0.03;;;;;;;17.18;61.39;100844.16;5106545;27;1162836;-79
2023/08/30 01:27:48;;;;;;;0.10;0.10;;;;;;;17.34;60.81;100837.13;5104674;27;1174965;-80
2023/08/30 01:30:15;;;;;;;1.38;1.27;;;;;;;17.34;61.21;100833.59;5122778;27;20027;-78
2023/08/30 01:32:43;;;;;;;0.10;0.10;;;;;;;17.33;60.83;100840.75;5121909;28;20027;-79
2023/08/30 01:35:10;;;;;;;0.00;0.00;;;;;;;17.36;60.84;100843.28;5117217;27;22053;-79
2023/08/30 01:37:37;;;;;;;0.17;0.17;;;;;;;17.36;60.79;100848.63;5118772;27;20032;-78
2023/08/30 01:40:05;;;;;;;0.10;0.10;;;;;;;17.38;61.23;100838.69;5118813;28;20028;-80
2023/08/30 01:42:33;;;;;;;0.40;0.40;;;;;;;17.41;60.96;100851.09;5121406;27;20043;-79
2023/08/30 01:45:00;;;;;;;0.08;0.08;;;;;;;17.42;61.05;100851.03;5117639;28;20027;-80
2023/08/30 01:47:28;;;;;;;0.10;0.10;;;;;;;17.45;61.11;100841.97;5120035;27;20028;-78
2023/08/30 01:49:55;;;;;;;0.05;0.05;;;;;;;17.42;60.96;100842.97;5116749;27;20028;-78
2023/08/30 01:52:23;;;;;;;0.20;0.20;;;;;;;17.46;60.85;100839.19;5114873;27;20031;-80
2023/08/30 01:54:53;;;;;;;0.15;0.15;;;;;;;17.49;60.60;100842.69;5113603;28;20034;-80
2023/08/30 01:57:19;;;;;;;0.03;0.03;;;;;;;17.48;60.87;100832.91;5116678;28;20027;-80
2023/08/30 01:59:45;;;;;;;0.10;0.10;;;;;;;17.46;61.22;100831.16;5114495;28;20083;-80
2023/08/30 02:02:11;;;;;;;0.10;0.10;;;;;;;17.50;60.68;100826.53;5115292;28;20027;-78
2023/08/30 02:04:37;;;;;;;10.80;0.75;;;;;;;17.44;60.98;100822.31;5114905;28;20456;-81
2023/08/30 02:07:12;;;;;;;0.03;0.03;;;;;;;17.47;60.87;100829.38;5116599;28;20039;-80
2023/08/30 02:12:17;;;;;;;0.45;0.45;;;;;;;17.46;60.91;100817.78;5071363;27;1882522;-80
2023/08/30 02:14:47;;;;;;;0.30;0.30;;;;;;;17.54;60.41;100819.22;5119825;28;20068;-79
2023/08/30 02:17:15;;;;;;;0.10;0.10;;;;;;;17.51;60.62;100814.88;5116178;28;20058;-80
2023/08/30 02:19:43;;;;;;;0.50;0.50;;;;;;;17.45;60.53;100810.69;5114604;28;20023;-80
2023/08/30 02:22:09;;;;;;;1.00;0.30;;;;;;;17.42;60.27;100805.50;5111702;28;20027;-80
2023/08/30 02:24:35;;;;;;;0.00;0.00;;;;;;;17.32;60.59;100809.56;5113430;28;20042;-81
2023/08/30 02:27:01;;;;;;;0.10;0.10;;;;;;;17.29;60.48;100809.69;5114804;28;20032;-80
2023/08/30 02:29:27;;;;;;;1.10;0.90;;;;;;;17.26;60.39;100816.06;5115725;28;20457;-81
2023/08/30 02:31:53;;;;;;;0.10;0.10;;;;;;;17.17;60.93;100813.84;5112502;28;20035;-81
2023/08/30 02:34:19;;;;;;;0.65;0.65;;;;;;;17.13;61.08;100810.47;5112283;28;20027;-81
2023/08/30 02:36:45;;;;;;;0.10;0.10;;;;;;;17.10;61.12;100813.25;5112418;28;20032;-81
2023/08/30 02:39:14;;;;;;;0.10;0.10;;;;;;;17.13;61.21;100810.47;5115041;28;20047;-81
2023/08/30 02:41:40;;;;;;;0.03;0.03;;;;;;;17.09;61.50;100802.63;5113748;28;20481;-81
2023/08/30 02:44:10;;;;;;;0.00;0.00;;;;;;;17.14;61.21;100793.44;5111955;28;20092;-81
2023/08/30 02:46:37;;;;;;;0.47;0.47;;;;;;;17.15;61.10;100797.00;5112824;28;20043;-80
2023/08/30 02:49:04;;;;;;;0.10;0.10;;;;;;;17.20;60.82;100799.44;5107799;28;20103;-81
2023/08/30 02:51:30;;;;;;;0.10;0.10;;;;;;;17.18;60.96;100786.13;5114047;28;20031;-81
2023/08/30 02:53:56;;;;;;;3.65;0.85;;;;;;;17.19;60.83;100782.50;5112538;28;20081;-81
2023/08/30 02:56:22;;;;;;;0.10;0.10;;;;;;;17.20;60.61;100778.03;5112960;28;20067;-81
2023/08/30 02:58:48;;;;;;;0.25;0.25;;;;;;;17.21;60.56;100775.28;5113191;28;20050;-81
2023/08/30 03:01:14;;;;;;;0.57;0.57;;;;;;;17.22;60.34;100770.78;5113521;28;20028;-81
2023/08/30 03:03:40;;;;;;;0.35;0.35;;;;;;;17.20;60.08;100761.97;5112210;28;20032;-79
2023/08/30 03:06:06;;;;;;;0.10;0.10;;;;;;;17.16;60.18;100757.69;5112755;28;20032;-80
2023/08/30 03:08:33;;;;;;;0.10;0.10;;;;;;;17.19;60.15;100753.06;5109691;28;20024;-81
2023/08/30 03:11:14;;;;;;;0.28;0.28;;;;;;;17.23;59.87;100751.09;5107726;28;20036;-81
2023/08/30 03:13:40;;;;;;;3.42;0.90;;;;;;;17.08;60.05;100753.56;5105371;28;20031;-81
2023/08/30 03:16:21;;;;;;;0.85;0.85;;;;;;;17.13;59.61;100751.56;5105729;28;20027;-80
2023/08/30 03:18:48;;;;;;;2.10;1.85;;;;;;;17.06;60.03;100750.13;5106835;28;20028;-81
2023/08/30 03:21:14;;;;;;;0.43;0.43;;;;;;;17.08;59.96;100742.00;5108262;28;20362;-81
2023/08/30 03:23:42;;;;;;;0.30;0.30;;;;;;;17.02;59.55;100735.13;5093847;28;20024;-81
2023/08/30 03:26:09;;;;;;;0.10;0.10;;;;;;;16.98;59.78;100725.53;5094682;28;20084;-81
2023/08/30 03:28:35;;;;;;;0.68;0.68;;;;;;;16.96;59.91;100725.59;5093908;28;20039;-80
2023/08/30 03:31:02;;;;;;;0.17;0.17;;;;;;;16.93;59.91;100719.53;5094923;28;20424;-80
2023/08/30 03:33:28;;;;;;;0.88;0.55;;;;;;;16.86;60.10;100726.97;5093284;28;20036;-80
2023/08/30 03:35:57;;;;;;;0.57;0.57;;;;;;;16.79;59.99;100720.19;5093761;28;20020;-81
2023/08/30 03:38:23;;;;;;;0.20;0.20;;;;;;;16.72;60.21;100719.59;5095499;28;20035;-81
2023/08/30 03:40:53;;;;;;;0.30;0.30;;;;;;;16.66;60.19;100714.56;5092048;28;20077;-80
2023/08/30 03:43:20;;;;;;;0.40;0.40;;;;;;;16.58;60.15;100712.22;5092891;28;20036;-80
2023/08/30 03:45:46;;;;;;;0.40;0.40;;;;;;;16.50;60.52;100709.91;5090516;28;20121;-80
2023/08/30 03:48:12;;;;;;;0.20;0.20;;;;;;;16.45;60.31;100701.25;5093613;28;20062;-80
2023/08/30 03:50:38;;;;;;;0.40;0.40;;;;;;;16.39;60.62;100701.53;5090016;28;20469;-81
2023/08/30 03:53:04;;;;;;;0.20;0.20;;;;;;;16.31;60.52;100696.53;5095265;28;20036;-79
2023/08/30 03:55:31;;;;;;;0.13;0.13;;;;;;;16.26;60.56;100698.56;5093052;28;20114;-79
2023/08/30 03:57:57;;;;;;;0.10;0.10;;;;;;;16.23;61.03;100701.38;5094063;28;20029;-80
2023/08/30 04:00:23;;;;;;;1.25;1.02;;;;;;;16.17;61.22;100707.88;5095536;28;20109;-80
2023/08/30 04:02:49;;;;;;;0.30;0.30;;;;;;;16.14;60.77;100707.16;5094329;28;20107;-80
2023/08/30 04:05:15;;;;;;;0.25;0.25;;;;;;;16.09;61.25;100701.16;5092428;28;20036;-80
2023/08/30 04:07:41;;;;;;;0.28;0.28;;;;;;;16.02;61.02;100700.53;5093857;28;20034;-81
2023/08/30 04:10:08;;;;;;;0.10;0.10;;;;;;;15.96;61.60;100695.47;5094674;28;20040;-81
2023/08/30 04:12:35;;;;;;;0.10;0.10;;;;;;;15.90;61.41;100687.72;5095200;28;20043;-81
2023/08/30 04:15:02;;;;;;;0.20;0.20;;;;;;;15.88;61.52;100693.16;5094654;28;20024;-81
2023/08/30 04:17:28;;;;;;;0.10;0.10;;;;;;;15.79;61.78;100683.72;5093718;28;20035;-81
2023/08/30 04:19:54;;;;;;;1.05;1.05;;;;;;;15.79;61.98;100686.38;5094075;28;20044;-80
2023/08/30 04:22:20;;;;;;;0.13;0.13;;;;;;;15.76;61.96;100681.16;5096804;28;20024;-82
2023/08/30 04:24:48;;;;;;;0.50;0.50;;;;;;;15.75;61.77;100679.44;5095402;28;20024;-81
2023/08/30 04:27:15;;;;;;;0.10;0.10;;;;;;;15.73;61.71;100683.97;5093832;28;20025;-80
2023/08/30 04:29:44;;;;;;;0.10;0.10;;;;;;;15.72;61.89;100682.25;5096898;28;20020;-81
2023/08/30 04:32:11;;;;;;;4.07;1.27;;;;;;;15.71;62.30;100674.31;5095677;28;20024;-79
2023/08/30 04:34:37;;;;;;;0.10;0.10;;;;;;;15.72;62.26;100673.38;5094559;28;20034;-80
2023/08/30 04:37:03;;;;;;;0.25;0.25;;;;;;;15.72;62.12;100668.88;5094616;28;20043;-80
2023/08/30 04:39:29;;;;;;;0.10;0.10;;;;;;;15.74;62.38;100669.69;5095189;28;20083;-80
2023/08/30 04:41:56;;;;;;;0.10;0.10;;;;;;;15.73;62.08;100664.44;5095512;28;20024;-81
2023/08/30 04:44:24;;;;;;;0.20;0.20;;;;;;;15.73;62.12;100654.59;5095032;28;20024;-80
2023/08/30 04:46:52;;;;;;;0.82;0.82;;;;;;;15.73;62.15;100659.94;5091344;28;20039;-80
2023/08/30 04:49:18;;;;;;;0.10;0.10;;;;;;;15.76;62.52;100665.13;5092769;28;20057;-80
2023/08/30 04:51:44;;;;;;;0.45;0.45;;;;;;;15.77;62.61;100658.00;5090898;28;20039;-80
2023/08/30 04:54:10;;;;;;;0.50;0.50;;;;;;;15.80;62.79;100655.19;5093310;28;20225;-80
2023/08/30 04:56:36;;;;;;;0.10;0.10;;;;;;;15.83;62.53;100655.09;5093799;28;20020;-81
2023/08/30 04:59:03;;;;;;;0.10;0.10;;;;;;;15.81;62.81;100660.47;5091519;28;20082;-81
2023/08/30 05:01:30;;;;;;;0.03;0.03;;;;;;;15.93;62.40;100660.88;5088818;28;20030;-80
2023/08/30 05:03:56;;;;;;;0.10;0.10;;;;;;;16.00;62.42;100667.69;5085450;28;20112;-80
2023/08/30 05:06:22;;;;;;;0.40;0.40;;;;;;;16.05;62.65;100672.81;5088690;28;20028;-80
2023/08/30 05:08:48;;;;;;;0.00;0.00;;;;;;;16.04;63.00;100674.63;5092238;28;20036;-81
2023/08/30 05:11:15;;;;;;;0.10;0.10;;;;;;;16.11;62.97;100677.88;5090443;28;20047;-81
2023/08/30 05:13:41;;;;;;;1.02;1.02;;;;;;;16.13;62.51;100671.50;5086154;28;20035;-81
2023/08/30 05:16:08;;;;;;;3.10;1.17;;;;;;;16.14;62.78;100672.41;5090943;28;20036;-81
2023/08/30 05:18:34;;;;;;;0.10;0.10;;;;;;;16.15;63.23;100677.66;5092591;28;20115;-81
2023/08/30 05:21:03;;;;;;;0.20;0.20;;;;;;;16.23;62.99;100679.13;5091401;28;20028;-81
2023/08/30 05:23:29;;;;;;;0.10;0.10;;;;;;;16.27;63.54;100676.22;5093820;28;20032;-81
2023/08/30 05:25:55;;;;;;;0.10;0.10;;;;;;;16.33;63.72;100680.41;5087181;28;20055;-81
2023/08/30 05:28:21;;;;;;;0.10;0.10;;;;;;;16.28;63.94;100683.31;5093894;28;20031;-81
2023/08/30 05:30:47;;;;;;;0.10;0.10;;;;;;;16.26;64.56;100678.97;5090043;28;20032;-81
2023/08/30 05:33:13;;;;;;;0.10;0.10;;;;;;;16.32;63.95;100670.66;5091963;28;20051;-80
2023/08/30 05:35:39;;;;;;;0.10;0.10;;;;;;;16.31;64.40;100671.59;5087073;28;20027;-81
2023/08/30 05:38:05;;;;;;;0.10;0.10;;;;;;;16.30;65.30;100665.41;5091181;28;20040;-80
2023/08/30 05:40:32;;;;;;;0.40;0.40;;;;;;;16.30;66.01;100670.75;5094400;28;20035;-79
2023/08/30 05:42:58;;;;;;;0.10;0.10;;;;;;;16.32;65.70;100657.28;5092750;28;20043;-79
2023/08/30 05:45:24;;;;;;;0.10;0.10;;;;;;;16.31;65.92;100656.44;5093412;28;20092;-79
2023/08/30 05:47:50;;;;;;;0.10;0.10;;;;;;;16.26;66.54;100654.91;5092594;28;20408;-79
2023/08/30 05:50:16;;;;;;;0.10;0.10;;;;;;;16.25;66.69;100664.75;5093277;28;20047;-79
2023/08/30 05:52:44;;;;;;;0.10;0.10;;;;;;;16.23;67.60;100657.75;5093041;28;20048;-79
2023/08/30 05:55:10;;;;;;;0.10;0.10;;;;;;;16.23;67.72;100653.25;5092535;28;20032;-79
2023/08/30 05:57:36;;;;;;;0.10;0.10;;;;;;;16.22;67.76;100651.50;5091602;28;20045;-79
2023/08/30 06:00:04;;;;;;;3.83;2.30;;;;;;;16.10;69.12;100641.38;5091697;28;20043;-79
2023/08/30 06:02:31;;;;;;;0.03;0.03;;;;;;;16.07;68.78;100642.41;5089783;28;20028;-79
2023/08/30 06:04:57;;;;;;;1.35;0.73;;;;;;;16.07;68.62;100639.72;5093421;28;20044;-79
2023/08/30 06:07:23;;;;;;;0.10;0.10;;;;;;;16.08;68.44;100633.44;5091682;28;20034;-79
2023/08/30 06:09:49;;;;;;;1.35;1.27;;;;;;;16.05;69.43;100624.69;5095697;28;20051;-79
2023/08/30 06:12:15;;;;;;;0.20;0.20;;;;;;;16.08;68.96;100625.44;5093763;28;20499;-79
2023/08/30 06:14:41;;;;;;;0.20;0.20;;;;;;;16.11;68.85;100622.63;5090223;28;20032;-79
2023/08/30 06:17:07;;;;;;;0.32;0.32;;;;;;;16.11;69.44;100622.63;5093448;28;20032;-79
2023/08/30 06:19:34;;;;;;;0.30;0.30;;;;;;;16.13;70.04;100620.72;5090922;28;20036;-80
2023/08/30 06:22:00;;;;;;;0.35;0.35;;;;;;;16.11;70.14;100619.97;5094513;28;20034;-79
2023/08/30 06:24:26;;;;;;;0.10;0.10;;;;;;;16.12;70.53;100623.47;5095740;28;20078;-80
2023/08/30 06:26:53;;;;;;;0.95;0.55;;;;;;;16.18;70.36;100626.72;5095363;28;20047;-80
2023/08/30 06:29:19;;;;;;;0.10;0.10;;;;;;;16.22;70.01;100619.44;5094308;28;20103;-80
2023/08/30 06:31:45;;;;;;;0.63;0.63;;;;;;;16.23;70.43;100620.31;5093892;28;20036;-80
2023/08/30 06:34:12;;;;;;;0.65;0.65;;;;;;;16.28;70.64;100620.97;5095609;28;20032;-79
2023/08/30 06:36:38;;;;;;;0.10;0.10;;;;;;;16.25;70.93;100618.41;5093098;28;20062;-79
2023/08/30 06:39:04;;;;;;;0.32;0.32;;;;;;;16.28;70.48;100612.94;5093666;28;20099;-80
2023/08/30 06:41:30;;;;;;;0.25;0.25;;;;;;;16.25;70.55;100607.72;5096545;28;20050;-79
2023/08/30 06:43:56;;;;;;;0.55;0.55;;;;;;;16.29;70.79;100612.88;5095290;28;20036;-80
2023/08/30 06:46:23;;;;;;;0.10;0.10;;;;;;;16.32;70.48;100603.81;5094697;28;20073;-80
2023/08/30 06:48:49;;;;;;;0.63;0.50;;;;;;;16.33;70.59;100600.22;5093876;28;20038;-80
2023/08/30 06:51:15;;;;;;;6.13;0.73;;;;;;;16.37;70.37;100599.13;5095263;28;20061;-79
2023/08/30 06:53:41;;;;;;;0.20;0.20;;;;;;;16.42;70.76;100609.59;5096557;28;20058;-79
2023/08/30 06:56:07;;;;;;;0.20;0.20;;;;;;;16.47;70.70;100603.09;5094458;28;20055;-79
2023/08/30 06:58:33;;;;;;;0.10;0.10;;;;;;;16.52;70.75;100596.66;5097842;28;20047;-80
2023/08/30 07:01:00;;;;;;;0.10;0.10;;;;;;;16.57;71.07;100592.78;5098507;28;20036;-80
2023/08/30 07:03:26;;;;;;;0.20;0.20;;;;;;;16.59;71.14;100592.75;5099546;28;20032;-79
2023/08/30 07:05:52;;;;;;;0.20;0.20;;;;;;;16.59;71.46;100592.75;5097420;28;20079;-80
2023/08/30 07:08:18;;;;;;;3.92;0.65;;;;;;;16.64;71.12;100586.22;5097860;28;20036;-80
2023/08/30 07:10:45;;;;;;;1.10;0.90;;;;;;;16.65;71.19;100579.91;5097019;28;20052;-79
2023/08/30 07:13:11;;;;;;;0.10;0.10;;;;;;;16.62;71.61;100558.69;5096767;28;20075;-79
2023/08/30 07:15:39;;;;;;;0.25;0.25;;;;;;;16.67;71.52;100550.41;5096586;28;20484;-79
2023/08/30 07:18:06;;;;;;;0.43;0.43;;;;;;;16.67;71.20;100555.75;5097039;28;20044;-78
2023/08/30 07:20:32;;;;;;;1.00;0.40;;;;;;;16.70;70.95;100560.97;5098463;28;20035;-79
2023/08/30 07:22:58;;;;;;;0.40;0.40;;;;;;;16.71;70.83;100559.16;5097550;28;20032;-80
2023/08/30 07:25:24;;;;;;;0.05;0.05;;;;;;;16.66;71.17;100559.41;5098307;28;20020;-79
2023/08/30 07:27:50;;;;;;;0.10;0.10;;;;;;;16.73;70.99;100560.81;5097265;28;20080;-79
2023/08/30 07:30:17;;;;;;;0.15;0.15;;;;;;;16.70;70.90;100552.06;5099026;28;20032;-80
2023/08/30 07:32:43;;;;;;;0.10;0.10;;;;;;;16.76;71.16;100551.75;5100930;28;20088;-80
2023/08/30 07:35:09;;;;;;;0.10;0.10;;;;;;;16.75;71.49;100548.22;5101162;28;20035;-80
2023/08/30 07:37:36;;;;;;;0.08;0.08;;;;;;;16.75;71.77;100547.38;5102676;28;20087;-81
2023/08/30 07:40:04;;;;;;;0.28;0.28;;;;;;;16.73;71.60;100531.38;5097526;28;20028;-79
2023/08/30 07:42:30;;;;;;;0.20;0.20;;;;;;;16.76;71.76;100533.91;5099361;28;20028;-81
2023/08/30 07:44:56;;;;;;;0.82;0.77;;;;;;;16.75;71.70;100531.31;5100064;28;20028;-81
2023/08/30 07:47:22;;;;;;;0.20;0.20;;;;;;;16.84;71.72;100532.66;5098595;28;20024;-80
2023/08/30 07:49:48;;;;;;;0.73;0.28;;;;;;;16.89;71.83;100522.59;5097359;28;20115;-79
2023/08/30 07:52:15;;;;;;;0.10;0.10;;;;;;;16.81;71.83;100525.66;5096578;28;20032;-80
2023/08/30 07:54:41;;;;;;;0.10;0.10;;;;;;;16.89;71.47;100527.94;5096537;28;20079;-80
2023/08/30 07:57:08;;;;;;;0.20;0.20;;;;;;;16.94;71.56;100521.41;5093134;28;20033;-79
2023/08/30 07:59:36;;;;;;;0.10;0.10;;;;;;;16.96;71.83;100518.69;5093261;28;20028;-80
2023/08/30 08:02:06;;;;;;;1.42;1.33;;;;;;;16.97;71.49;100517.72;5096642;28;20040;-80
2023/08/30 08:04:33;;;;;;;0.10;0.10;;;;;;;17.06;71.45;100524.41;5096703;28;20117;-79
2023/08/30 08:06:59;;;;;;;0.10;0.10;;;;;;;17.03;71.59;100529.94;5096126;28;20054;-80
2023/08/30 08:09:25;;;;;;;0.85;0.85;;;;;;;17.15;71.06;100529.28;5097929;28;20073;-79
2023/08/30 08:11:51;;;;;;;0.10;0.10;;;;;;;17.18;71.40;100536.28;5092933;28;20024;-78
2023/08/30 08:14:17;;;;;;;0.15;0.15;;;;;;;17.12;71.35;100529.44;5094634;28;20493;-79
2023/08/30 08:16:43;;;;;;;2.83;1.23;;;;;;;17.17;71.35;100532.75;5091852;28;20040;-78
2023/08/30 08:19:10;;;;;;;0.95;0.75;;;;;;;17.17;71.39;100537.22;5080976;28;20062;-79
2023/08/30 08:21:36;;;;;;;0.10;0.10;;;;;;;17.16;71.44;100524.78;5099654;28;20072;-79
2023/08/30 08:24:02;;;;;;;0.32;0.32;;;;;;;17.25;70.96;100530.53;5091415;28;20028;-80
2023/08/30 08:26:28;;;;;;;0.10;0.10;;;;;;;17.18;71.70;100528.25;5094455;28;20039;-79
2023/08/30 08:28:55;;;;;;;3.00;0.65;;;;;;;17.22;71.69;100524.47;5079871;28;20153;-78
2023/08/30 08:31:21;;;;;;;0.10;0.10;;;;;;;17.20;71.39;100526.38;5088088;28;20469;-78
2023/08/30 08:33:51;;;;;;;0.00;0.00;;;;;;;17.28;71.32;100529.50;5087815;28;20509;-79
2023/08/30 08:36:17;;;;;;;0.28;0.28;;;;;;;17.23;71.28;100532.41;5095352;28;20032;-79
2023/08/30 08:38:43;;;;;;;0.10;0.10;;;;;;;17.34;71.23;100529.16;5091534;28;20032;-80
2023/08/30 08:41:14;;;;;;;0.17;0.17;;;;;;;17.41;71.62;100524.38;5080246;28;20032;-79
2023/08/30 08:43:42;;;;;;;0.30;0.30;;;;;;;17.43;71.63;100527.81;5082392;28;20028;-80
2023/08/30 08:46:13;;;;;;;0.45;0.45;;;;;;;17.53;70.96;100522.81;5096475;28;20036;-80
2023/08/30 08:48:43;;;;;;;0.10;0.10;;;;;;;17.59;71.05;100517.97;5080870;28;20023;-78
2023/08/30 08:51:09;;;;;;;0.10;0.10;;;;;;;17.69;71.49;100521.03;5098600;28;20081;-78
2023/08/30 08:53:37;;;;;;;0.20;0.20;;;;;;;17.77;71.94;100521.47;5097827;28;20028;-80
2023/08/30 08:56:06;;;;;;;0.30;0.30;;;;;;;17.88;71.70;100528.94;5085654;28;20028;-79
2023/08/30 08:58:32;;;;;;;0.10;0.10;;;;;;;17.96;71.33;100525.84;5096712;28;20047;-79
2023/08/30 09:00:59;;;;;;;0.00;0.00;;;;;;;18.10;71.45;100533.97;5101864;28;20046;-80
2023/08/30 09:03:26;;;;;;;0.10;0.10;;;;;;;17.98;71.48;100533.78;5100840;28;20130;-79
2023/08/30 09:05:52;;;;;;;0.05;0.05;;;;;;;18.11;70.77;100530.34;5091698;28;20048;-79
2023/08/30 09:08:19;;;;;;;0.10;0.10;;;;;;;18.14;71.28;100534.66;5075803;28;20040;-79
2023/08/30 09:10:47;;;;;;;0.30;0.30;;;;;;;18.23;70.99;100525.22;5085742;28;20542;-78
2023/08/30 09:13:13;;;;;;;0.00;0.00;;;;;;;18.36;71.91;100528.09;5102190;28;20027;-78
2023/08/30 09:15:39;;;;;;;0.10;0.10;;;;;;;18.54;71.80;100528.81;5097123;28;20031;-76
2023/08/30 09:18:16;;;;;;;0.20;0.20;;;;;;;18.66;71.81;100525.41;5095874;28;20028;-78
2023/08/30 09:20:42;;;;;;;0.57;0.57;;;;;;;18.83;70.93;100528.91;5093913;28;20023;-78
2023/08/30 09:23:25;;;;;;;0.10;0.10;;;;;;;19.04;69.34;100521.41;5093845;28;20081;-79
2023/08/30 09:25:55;;;;;;;0.10;0.10;;;;;;;18.99;67.95;100521.72;5082864;28;20028;-79
2023/08/30 09:28:21;;;;;;;0.70;0.40;;;;;;;19.11;68.58;100530.81;5082457;28;20112;-78
2023/08/30 09:30:51;;;;;;;0.10;0.10;;;;;;;19.06;65.84;100517.69;5096834;28;20056;-77
2023/08/30 09:33:23;;;;;;;0.08;0.08;;;;;;;19.21;65.71;100517.72;5096855;28;20646;-81
2023/08/30 09:35:49;;;;;;;0.10;0.10;;;;;;;19.21;65.16;100520.38;5092700;28;20028;-81
2023/08/30 09:38:23;;;;;;;0.10;0.10;;;;;;;19.19;62.90;100522.28;5103121;28;20032;-78
2023/08/30 09:40:49;;;;;;;0.10;0.10;;;;;;;19.26;64.25;100529.03;5088842;28;20160;-80
2023/08/30 09:43:21;;;;;;;0.10;0.10;;;;;;;19.32;63.52;100533.16;5092127;28;20070;-79
2023/08/30 09:45:47;;;;;;;0.10;0.10;;;;;;;19.34;62.95;100534.81;5099217;28;20117;-79
2023/08/30 09:48:14;;;;;;;0.10;0.10;;;;;;;19.43;63.48;100535.16;5097958;28;20043;-76
2023/08/30 09:50:44;;;;;;;0.20;0.20;;;;;;;19.46;62.36;100519.72;5081800;28;20056;-78
2023/08/30 09:53:11;;;;;;;0.10;0.10;;;;;;;19.50;62.66;100533.84;5089354;28;20115;-78
2023/08/30 09:55:37;;;;;;;2.90;1.75;;;;;;;19.61;62.50;100527.78;5089748;28;20024;-79
2023/08/30 09:58:05;;;;;;;0.10;0.10;;;;;;;19.80;62.61;100528.38;5100134;28;20019;-76
2023/08/30 10:00:33;;;;;;;0.10;0.10;;;;;;;19.85;61.08;100530.75;5099036;28;20044;-79
2023/08/30 10:03:00;;;;;;;0.10;0.10;;;;;;;19.80;60.21;100524.78;5088779;28;20651;-79
2023/08/30 10:05:26;;;;;;;0.10;0.10;;;;;;;19.89;60.31;100521.56;5095610;28;20028;-79
2023/08/30 10:07:54;;;;;;;0.10;0.10;;;;;;;20.09;60.66;100528.34;5098874;28;20024;-80
2023/08/30 10:10:21;;;;;;;0.10;0.10;;;;;;;20.33;59.92;100533.91;5088683;28;20033;-78
2023/08/30 10:12:49;;;;;;;0.10;0.10;;;;;;;20.48;59.58;100526.66;5089835;28;20031;-78
2023/08/30 10:15:15;;;;;;;0.20;0.17;;;;;;;20.52;59.29;100533.56;5100471;28;20223;-78
2023/08/30 10:17:45;;;;;;;0.10;0.10;;;;;;;20.47;58.33;100542.91;5100545;28;20038;-80
2023/08/30 10:20:12;;;;;;;0.10;0.10;;;;;;;20.48;58.08;100539.25;5100799;28;20069;-80
2023/08/30 10:22:41;;;;;;;0.10;0.10;;;;;;;20.46;58.99;100546.56;5099554;28;20030;-78
2023/08/30 10:25:16;;;;;;;0.08;0.08;;;;;;;20.38;58.62;100559.69;5089956;28;20036;-79
2023/08/30 10:27:46;;;;;;;1.90;0.90;;;;;;;20.26;58.17;100555.94;5099897;28;20055;-77
2023/08/30 10:30:13;;;;;;;0.10;0.10;;;;;;;20.09;58.13;100551.66;5084194;28;20028;-80
2023/08/30 10:32:40;;;;;;;0.55;0.55;;;;;;;20.11;58.66;100563.19;5100402;28;20032;-79
2023/08/30 10:35:10;;;;;;;0.10;0.10;;;;;;;19.98;58.23;100565.81;5089403;28;20035;-78
2023/08/30 10:37:36;;;;;;;0.10;0.10;;;;;;;19.98;58.08;100579.25;5099949;28;20028;-79
2023/08/30 10:40:03;;;;;;;0.10;0.10;;;;;;;19.72;57.31;100593.34;5096182;28;20096;-80
2023/08/30 10:42:29;;;;;;;0.10;0.10;;;;;;;19.80;56.85;100575.88;5102159;28;20392;-80
2023/08/30 10:45:06;;;;;;;0.10;0.10;;;;;;;19.88;56.83;100577.16;5102355;28;20028;-76
2023/08/30 10:47:37;;;;;;;0.20;0.20;;;;;;;19.80;56.12;100589.31;5102328;28;20028;-81
2023/08/30 10:50:09;;;;;;;0.10;0.10;;;;;;;19.82;56.24;100580.19;5100727;28;20028;-79
2023/08/30 10:52:35;;;;;;;0.22;0.22;;;;;;;19.72;54.70;100585.28;5093799;28;20397;-80
2023/08/30 10:55:11;;;;;;;0.10;0.10;;;;;;;19.69;54.55;100582.78;5088565;28;20036;-80
2023/08/30 10:57:41;;;;;;;7.88;0.90;;;;;;;19.62;54.85;100586.81;5094850;28;20048;-77
2023/08/30 11:02:48;;;;;;;0.00;0.00;;;;;;;19.59;53.12;100589.72;5096759;27;20478;-80
2023/08/30 11:05:17;;;;;;;1.23;1.23;;;;;;;19.78;53.82;100592.09;5096059;28;20105;-80
2023/08/30 11:07:45;;;;;;;0.10;0.10;;;;;;;19.89;54.06;100588.78;5091776;28;20107;-77
2023/08/30 11:10:11;;;;;;;0.15;0.15;;;;;;;19.97;52.86;100591.81;5074928;28;20021;-78
2023/08/30 11:12:40;;;;;;;0.25;0.25;;;;;;;20.12;52.21;100587.28;5083885;28;20028;-77
2023/08/30 11:15:08;;;;;;;0.10;0.10;;;;;;;20.35;53.28;100598.41;5094854;28;20031;-79
2023/08/30 11:17:34;;;;;;;0.10;0.10;;;;;;;20.41;52.54;100592.63;5086638;28;20032;-80
2023/08/30 11:20:18;;;;;;;0.20;0.20;;;;;;;20.62;50.42;100587.66;5076516;28;20516;-80
2023/08/30 11:22:46;;;;;;;0.10;0.10;;;;;;;20.71;51.00;100585.31;5076780;28;20024;-80
2023/08/30 11:25:14;;;;;;;0.03;0.03;;;;;;;20.84;49.52;100589.78;5075393;28;20029;-81
2023/08/30 11:27:41;;;;;;;0.13;0.13;;;;;;;21.07;49.59;100594.59;5077168;28;20021;-81
2023/08/30 11:30:08;;;;;;;1.05;1.05;;;;;;;21.04;47.53;100589.44;5076041;28;20025;-77
2023/08/30 11:32:36;;;;;;;0.10;0.10;;;;;;;21.20;48.97;100582.00;5080524;28;20024;-77
2023/08/30 11:35:03;;;;;;;0.10;0.10;;;;;;;21.08;47.62;100585.53;5078680;28;20028;-80